createdAt,value
2019-06-15T00:05:13.884Z,0.0
2019-06-15T00:15:32.748Z,0.0
2019-06-15T00:25:46.945Z,0.0
2019-06-15T00:36:33.524Z,0.0
2019-06-15T00:46:49.078Z,0.0
2019-06-15T00:57:10.041Z,0.0
2019-06-15T01:07:28.828Z,0.0
2019-06-15T01:17:44.033Z,0.0
2019-06-15T01:28:03.646Z,0.0
2019-06-15T01:38:18.199Z,0.0
2019-06-15T01:48:36.339Z,0.0
2019-06-15T01:58:54.713Z,0.0
2019-06-15T02:09:40.223Z,0.0
2019-06-15T02:19:55.257Z,0.0
2019-06-15T02:30:43.267Z,0.0
2019-06-15T02:40:56.695Z,0.0
2019-06-15T02:51:41.800Z,4.0
2019-06-15T03:02:27.253Z,4.0
2019-06-15T03:12:46.015Z,8.0
2019-06-15T03:23:34.056Z,16.0
2019-06-15T03:33:45.978Z,60.0
2019-06-15T03:43:57.999Z,192.0
2019-06-15T03:54:43.423Z,428.0
2019-06-15T04:05:36.208Z,172.0
2019-06-15T04:16:21.577Z,708.0
2019-06-15T04:27:29.668Z,1560.0
2019-06-15T04:37:57.107Z,2192.0
2019-06-15T04:48:42.941Z,2616.0
2019-06-15T04:59:02.293Z,2844.0
2019-06-15T05:09:16.834Z,2208.0
2019-06-15T05:20:06.594Z,2408.0
2019-06-15T05:30:20.577Z,1020.0
2019-06-15T05:40:38.261Z,2660.0
2019-06-15T05:50:50.163Z,3728.0
2019-06-15T06:01:05.986Z,1900.0
2019-06-15T06:11:19.297Z,1100.0
2019-06-15T06:22:05.712Z,3192.0
2019-06-15T06:32:19.666Z,2400.0
2019-06-15T06:43:05.068Z,2676.0
2019-06-15T06:53:44.072Z,2848.0
2019-06-15T07:04:34.966Z,3064.0
2019-06-15T07:14:50.322Z,1992.0
2019-06-15T07:25:35.387Z,1568.0
2019-06-15T07:36:01.511Z,720.0
2019-06-15T07:46:17.500Z,1692.0
2019-06-15T07:57:02.755Z,1180.0
2019-06-15T08:07:56.660Z,1508.0
2019-06-15T08:18:43.889Z,1516.0
2019-06-15T08:29:32.386Z,3148.0
2019-06-15T08:39:48.016Z,5664.0
2019-06-15T08:50:34.628Z,3080.0
2019-06-15T09:00:52.824Z,3296.0
2019-06-15T09:11:10.516Z,4208.0
2019-06-15T09:21:57.463Z,4260.0
2019-06-15T09:32:11.215Z,4124.0
2019-06-15T09:43:05.731Z,12972.0
2019-06-15T09:53:55.006Z,24768.0
2019-06-15T10:04:44.628Z,3700.0
2019-06-15T10:15:28.002Z,18528.0
2019-06-15T10:27:21.159Z,24160.0
2019-06-15T10:38:07.731Z,16576.0
2019-06-15T10:48:55.632Z,25568.0
2019-06-15T10:59:10.117Z,6008.0
2019-06-15T11:13:22.057Z,7740.0
2019-06-15T11:25:50.320Z,15616.0
2019-06-15T11:36:08.847Z,24512.0
2019-06-15T11:46:55.706Z,51264.0
2019-06-15T11:57:15.671Z,12536.0
2019-06-15T12:07:51.600Z,56800.0
2019-06-15T12:18:42.957Z,32192.0
2019-06-15T12:29:31.604Z,12840.0
2019-06-15T12:39:48.336Z,47744.0
2019-06-15T12:50:33.814Z,45088.0
2019-06-15T13:01:19.455Z,22016.0
2019-06-15T13:12:05.402Z,17984.0
2019-06-15T13:22:49.993Z,10452.0
2019-06-15T13:33:37.177Z,18816.0
2019-06-15T13:44:21.854Z,18336.0
2019-06-15T13:55:08.396Z,19072.0
2019-06-15T14:05:42.802Z,16992.0
2019-06-15T14:15:55.805Z,19648.0
2019-06-15T14:26:43.833Z,16576.0
2019-06-15T14:37:35.526Z,11948.0
2019-06-15T14:47:52.720Z,11360.0
2019-06-15T14:58:45.780Z,10636.0
2019-06-15T15:09:00.998Z,10580.0
2019-06-15T15:19:47.949Z,10036.0
2019-06-15T15:30:02.040Z,10412.0
2019-06-15T15:40:16.504Z,8332.0
2019-06-15T15:51:06.362Z,9172.0
2019-06-15T16:01:50.981Z,8536.0
2019-06-15T16:12:03.567Z,9096.0
2019-06-15T16:22:18.241Z,8092.0
2019-06-15T16:32:33.324Z,8780.0
2019-06-15T16:43:20.329Z,7560.0
2019-06-15T16:53:37.475Z,5708.0
2019-06-15T17:04:28.150Z,6796.0
2019-06-15T17:15:17.029Z,4084.0
2019-06-15T17:25:29.797Z,5036.0
2019-06-15T17:35:55.152Z,4516.0
2019-06-15T17:45:56.693Z,4468.0
2019-06-15T17:56:12.036Z,3580.0
2019-06-15T18:22:36.256Z,3984.0
2019-06-15T18:32:53.400Z,3704.0
2019-06-15T18:43:08.791Z,3128.0
2019-06-15T18:53:26.780Z,2240.0
2019-06-15T19:03:38.800Z,1736.0
2019-06-15T19:13:56.179Z,1284.0
2019-06-15T19:24:41.641Z,876.0
2019-06-15T19:35:31.883Z,532.0
2019-06-15T19:46:18.712Z,288.0
2019-06-15T19:57:07.706Z,132.0
2019-06-15T20:07:57.024Z,48.0
2019-06-15T20:18:14.235Z,16.0
2019-06-15T20:29:12.866Z,4.0
2019-06-15T20:39:30.198Z,0.0
2019-06-15T20:50:28.154Z,0.0
2019-06-15T21:17:51.228Z,0.0
2019-06-15T21:28:37.572Z,0.0
2019-06-15T21:45:03.344Z,0.0
2019-06-15T21:55:51.372Z,0.0
2019-06-15T22:06:42.373Z,0.0
2019-06-15T22:17:32.226Z,0.0
2019-06-15T22:28:21.717Z,0.0
2019-06-15T22:39:10.524Z,0.0
2019-06-15T22:50:28.827Z,0.0
2019-06-15T23:01:17.637Z,0.0
2019-06-15T23:16:36.764Z,0.0
2019-06-15T23:27:22.618Z,0.0
2019-06-15T23:37:38.343Z,0.0
2019-06-15T23:48:26.594Z,0.0
2019-06-15T23:58:40.761Z,0.0
